Nearby METAR Reports

 Weather conditions at key Metar weather stations is recorded hourly. Metar weather stations are the stations set up at regional or major airports and often considered the official stations of record for a local area.

KSEA - Seattle/Tacoma Airport
Updated: 06/18/2018 5:53pm
Mostly cloudy
Mostly cloudy
 Wind from SSW
Wind: SSW 7 mph , 11 km/h
Temperature: 86°F , 30°C
Dew Point: 54°F , 12°C
Humidity: 33%
Barometer: 29.94 inHg , 1013.9 hPa
Clouds: Mostly cloudy
Visibility: 10 miles , 16 km
Cloud details: Few Clouds 5000 ft
Mostly cloudy 25000 ft
2018/06/19 00:53 KSEA 190053Z 20006KT 10SM FEW050 BKN250 30/12 A2994 RMK AO2 SLP143 T03000117
KTIW - Tacoma Narrows Bridge
Updated: 06/18/2018 5:53pm
Partly cloudy
Partly cloudy
 Wind from WSW
Wind: WSW 8 mph , 13 km/h
Temperature: 82°F , 28°C
Heat Index: 82°F , 28°C
Dew Point: 57°F , 14°C
Humidity: 42%
Barometer: 29.94 inHg , 1013.9 hPa
Clouds: Partly cloudy
Visibility: 10 miles , 16 km
Cloud details: Partly cloudy 4500 ft
2018/06/19 00:53 KTIW 190053Z 25007KT 10SM SCT045 28/14 A2994 RMK AO2 SLP136 T02780139
 
KBLI - Bellingham
Updated: 06/18/2018 5:53pm
Clear
Clear
 Wind from S
Wind: S 8 mph , 13 km/h
Temperature: 81°F , 27°C
Heat Index: 81°F , 27°C
Dew Point: 55°F , 13°C
Humidity: 42%
Barometer: 29.89 inHg , 1012.2 hPa
Clouds: Clear
Visibility: 10 miles , 16 km
2018/06/19 00:53 KBLI 190053Z 17007KT 10SM CLR 27/13 A2989 RMK AO2 SLP128 T02670128
KUIL - Quillayute-La Push
Updated: 06/18/2018 5:53pm
Overcast
Overcast
 Wind from S
Wind: S 12 mph , 19 km/h
Temperature: 63°F , 17°C
Dew Point: 57°F , 14°C
Humidity: 83%
Barometer: 30.01 inHg , 1016.3 hPa
Clouds: Overcast
Visibility: 10 miles , 16 km
Cloud details: Overcast 900 ft
2018/06/19 00:53 KUIL 190053Z AUTO 19010KT 10SM OVC009 17/14 A3001 RMK AO2 SLP163 T01670139 $
 
KYKM - Yakima
Updated: 06/18/2018 5:53pm
Clear
Clear
 Wind from SE
Wind: SE 13 mph , 20 km/h
Temperature: 79°F , 26°C
Dew Point: 52°F , 11°C
Humidity: 39%
Barometer: 29.96 inHg , 1014.6 hPa
Clouds: Clear
Visibility: 10 miles , 16 km
2018/06/19 00:53 KYKM 190053Z 13011KT 10SM CLR 26/11 A2996 RMK AO2 SLP141 T02610106
KGEG - Spokane
Updated: 06/18/2018 5:53pm
Light rain, Overcast
Light rain, Overcast
 Wind from NE
Wind: NE 10 mph , 17 km/h
Temperature: 64°F , 18°C
Dew Point: 55°F , 13°C
Humidity: 73%
Barometer: 30.05 inHg , 1017.6 hPa
Summary: Light rain
Clouds: Overcast
Visibility: 10 miles , 16 km
Cloud details: Few Clouds 8500 ft
Overcast 9500 ft
2018/06/19 00:53 KGEG 190053Z 05009KT 10SM -RA FEW085 OVC095 18/13 A3005 RMK AO2 RAB2358 SLP166 P0000 T01780128
 
KPDX - Portland
Updated: 06/18/2018 5:53pm
Mostly cloudy
Mostly cloudy
 Wind from ESE
Wind: ESE 6 mph , 9 km/h
Temperature: 81°F , 27°C
Heat Index: 81°F , 27°C
Dew Point: 57°F , 14°C
Humidity: 45%
Barometer: 29.98 inHg , 1015.2 hPa
Clouds: Mostly cloudy
Visibility: 10 miles , 16 km
Cloud details: Few Clouds 15000 ft
Mostly cloudy 25000 ft
2018/06/19 00:53 KPDX 190053Z 12005KT 10SM FEW150 BKN250 27/14 A2998 RMK AO2 SLP150 T02720139